sensor_id;sensor_type;location;lat;lon;timestamp;temperature;humidity
23347;DHT22;36852;45.466;11.066;2023-08-24T00:01:44;31.70;94.20
23347;DHT22;36852;45.466;11.066;2023-08-24T00:04:13;31.70;94.10
23347;DHT22;36852;45.466;11.066;2023-08-24T00:06:41;31.70;94.40
23347;DHT22;36852;45.466;11.066;2023-08-24T00:09:11;31.60;94.30
23347;DHT22;36852;45.466;11.066;2023-08-24T00:11:40;31.70;93.80
23347;DHT22;36852;45.466;11.066;2023-08-24T00:14:09;31.60;93.60
23347;DHT22;36852;45.466;11.066;2023-08-24T00:16:37;31.60;93.70
23347;DHT22;36852;45.466;11.066;2023-08-24T00:19:06;31.50;93.60
23347;DHT22;36852;45.466;11.066;2023-08-24T00:21:34;31.50;93.90
23347;DHT22;36852;45.466;11.066;2023-08-24T00:24:04;31.50;93.80
23347;DHT22;36852;45.466;11.066;2023-08-24T00:26:32;31.50;93.70
23347;DHT22;36852;45.466;11.066;2023-08-24T00:29:00;31.40;93.80
23347;DHT22;36852;45.466;11.066;2023-08-24T00:31:28;31.40;93.80
23347;DHT22;36852;45.466;11.066;2023-08-24T00:33:56;31.40;93.80
23347;DHT22;36852;45.466;11.066;2023-08-24T00:36:24;31.30;93.50
23347;DHT22;36852;45.466;11.066;2023-08-24T00:38:52;31.30;93.60
23347;DHT22;36852;45.466;11.066;2023-08-24T00:41:20;31.30;93.70
23347;DHT22;36852;45.466;11.066;2023-08-24T00:43:49;31.30;93.70
23347;DHT22;36852;45.466;11.066;2023-08-24T00:46:17;31.30;93.80
23347;DHT22;36852;45.466;11.066;2023-08-24T00:48:47;31.20;93.80
23347;DHT22;36852;45.466;11.066;2023-08-24T00:51:15;31.20;94.10
23347;DHT22;36852;45.466;11.066;2023-08-24T00:53:42;31.20;94.30
23347;DHT22;36852;45.466;11.066;2023-08-24T00:56:11;31.20;94.30
23347;DHT22;36852;45.466;11.066;2023-08-24T00:58:44;31.20;94.00
23347;DHT22;36852;45.466;11.066;2023-08-24T01:01:13;31.10;94.10
23347;DHT22;36852;45.466;11.066;2023-08-24T01:03:41;31.10;94.20
23347;DHT22;36852;45.466;11.066;2023-08-24T01:06:10;31.10;94.50
23347;DHT22;36852;45.466;11.066;2023-08-24T01:08:39;31.10;94.30
23347;DHT22;36852;45.466;11.066;2023-08-24T01:14:04;31.00;94.30
23347;DHT22;36852;45.466;11.066;2023-08-24T01:16:31;31.00;94.20
23347;DHT22;36852;45.466;11.066;2023-08-24T01:19:02;31.00;94.00
23347;DHT22;36852;45.466;11.066;2023-08-24T01:21:33;31.00;94.30
23347;DHT22;36852;45.466;11.066;2023-08-24T01:24:18;31.00;95.10
23347;DHT22;36852;45.466;11.066;2023-08-24T01:26:48;31.00;94.30
23347;DHT22;36852;45.466;11.066;2023-08-24T01:29:18;31.00;94.10
23347;DHT22;36852;45.466;11.066;2023-08-24T01:31:49;31.00;94.40
23347;DHT22;36852;45.466;11.066;2023-08-24T01:34:17;31.00;94.50
23347;DHT22;36852;45.466;11.066;2023-08-24T01:36:45;30.90;94.60
23347;DHT22;36852;45.466;11.066;2023-08-24T01:39:25;30.90;94.80
23347;DHT22;36852;45.466;11.066;2023-08-24T01:41:51;30.90;94.40
23347;DHT22;36852;45.466;11.066;2023-08-24T01:44:21;30.90;94.30
23347;DHT22;36852;45.466;11.066;2023-08-24T01:46:51;30.90;94.30
23347;DHT22;36852;45.466;11.066;2023-08-24T01:49:22;30.90;94.50
23347;DHT22;36852;45.466;11.066;2023-08-24T01:51:52;30.90;95.00
23347;DHT22;36852;45.466;11.066;2023-08-24T01:54:22;30.90;94.90
23347;DHT22;36852;45.466;11.066;2023-08-24T01:56:51;30.80;94.90
23347;DHT22;36852;45.466;11.066;2023-08-24T01:59:19;30.80;95.10
23347;DHT22;36852;45.466;11.066;2023-08-24T02:01:47;30.90;95.00
23347;DHT22;36852;45.466;11.066;2023-08-24T02:04:15;30.80;95.00
23347;DHT22;36852;45.466;11.066;2023-08-24T02:06:43;30.80;95.20
23347;DHT22;36852;45.466;11.066;2023-08-24T02:09:11;30.80;95.60
23347;DHT22;36852;45.466;11.066;2023-08-24T02:11:39;30.80;95.40
23347;DHT22;36852;45.466;11.066;2023-08-24T02:14:06;30.80;95.00
23347;DHT22;36852;45.466;11.066;2023-08-24T02:16:36;30.80;95.00
23347;DHT22;36852;45.466;11.066;2023-08-24T02:19:05;30.80;94.90
23347;DHT22;36852;45.466;11.066;2023-08-24T02:21:35;30.80;95.10
23347;DHT22;36852;45.466;11.066;2023-08-24T02:24:04;30.80;95.10
23347;DHT22;36852;45.466;11.066;2023-08-24T02:26:33;30.80;95.20
23347;DHT22;36852;45.466;11.066;2023-08-24T02:29:00;30.80;95.40
23347;DHT22;36852;45.466;11.066;2023-08-24T02:31:29;30.70;95.60
23347;DHT22;36852;45.466;11.066;2023-08-24T02:33:57;30.70;95.80
23347;DHT22;36852;45.466;11.066;2023-08-24T02:36:25;30.60;95.80
23347;DHT22;36852;45.466;11.066;2023-08-24T02:38:54;30.60;95.60
23347;DHT22;36852;45.466;11.066;2023-08-24T02:41:24;30.60;95.60
23347;DHT22;36852;45.466;11.066;2023-08-24T02:43:52;30.60;95.90
23347;DHT22;36852;45.466;11.066;2023-08-24T02:46:20;30.60;95.60
23347;DHT22;36852;45.466;11.066;2023-08-24T02:48:48;30.60;95.30
23347;DHT22;36852;45.466;11.066;2023-08-24T02:51:16;30.60;95.60
23347;DHT22;36852;45.466;11.066;2023-08-24T02:53:43;30.60;95.50
23347;DHT22;36852;45.466;11.066;2023-08-24T02:56:11;30.60;95.60
23347;DHT22;36852;45.466;11.066;2023-08-24T02:58:38;30.60;95.80
23347;DHT22;36852;45.466;11.066;2023-08-24T03:01:07;30.60;95.80
23347;DHT22;36852;45.466;11.066;2023-08-24T03:03:35;30.50;96.00
23347;DHT22;36852;45.466;11.066;2023-08-24T03:06:05;30.50;96.40
23347;DHT22;36852;45.466;11.066;2023-08-24T03:08:34;30.50;96.50
23347;DHT22;36852;45.466;11.066;2023-08-24T03:11:02;30.60;96.80
23347;DHT22;36852;45.466;11.066;2023-08-24T03:13:35;30.60;97.00
23347;DHT22;36852;45.466;11.066;2023-08-24T03:16:04;30.60;97.30
23347;DHT22;36852;45.466;11.066;2023-08-24T03:18:33;30.50;97.40
23347;DHT22;36852;45.466;11.066;2023-08-24T03:21:03;30.50;97.70
23347;DHT22;36852;45.466;11.066;2023-08-24T03:23:32;30.50;97.70
23347;DHT22;36852;45.466;11.066;2023-08-24T03:26:00;30.50;97.80
23347;DHT22;36852;45.466;11.066;2023-08-24T03:28:28;30.50;98.20
23347;DHT22;36852;45.466;11.066;2023-08-24T03:30:55;30.50;97.90
23347;DHT22;36852;45.466;11.066;2023-08-24T03:33:24;30.50;98.40
23347;DHT22;36852;45.466;11.066;2023-08-24T03:35:54;30.50;98.40
23347;DHT22;36852;45.466;11.066;2023-08-24T03:38:23;30.40;98.90
23347;DHT22;36852;45.466;11.066;2023-08-24T03:40:51;30.40;99.10
23347;DHT22;36852;45.466;11.066;2023-08-24T03:43:19;30.40;98.90
23347;DHT22;36852;45.466;11.066;2023-08-24T03:45:48;30.40;99.00
23347;DHT22;36852;45.466;11.066;2023-08-24T03:48:16;30.40;99.10
23347;DHT22;36852;45.466;11.066;2023-08-24T03:50:43;30.40;99.10
23347;DHT22;36852;45.466;11.066;2023-08-24T03:53:12;30.40;99.20
23347;DHT22;36852;45.466;11.066;2023-08-24T03:55:40;30.30;99.20
23347;DHT22;36852;45.466;11.066;2023-08-24T03:58:08;30.30;99.90
23347;DHT22;36852;45.466;11.066;2023-08-24T04:00:37;30.30;99.90
23347;DHT22;36852;45.466;11.066;2023-08-24T04:03:05;30.30;99.90
23347;DHT22;36852;45.466;11.066;2023-08-24T04:05:34;30.20;99.90
23347;DHT22;36852;45.466;11.066;2023-08-24T04:08:02;30.20;99.80
23347;DHT22;36852;45.466;11.066;2023-08-24T04:10:30;30.30;99.90
23347;DHT22;36852;45.466;11.066;2023-08-24T04:12:59;30.30;99.90
23347;DHT22;36852;45.466;11.066;2023-08-24T04:15:26;30.20;99.90
23347;DHT22;36852;45.466;11.066;2023-08-24T04:17:54;30.20;99.70
23347;DHT22;36852;45.466;11.066;2023-08-24T04:20:21;30.20;99.60
23347;DHT22;36852;45.466;11.066;2023-08-24T04:22:51;30.20;99.60
23347;DHT22;36852;45.466;11.066;2023-08-24T04:25:19;30.20;99.60
23347;DHT22;36852;45.466;11.066;2023-08-24T04:27:47;30.20;99.50
23347;DHT22;36852;45.466;11.066;2023-08-24T04:30:16;30.20;99.90
23347;DHT22;36852;45.466;11.066;2023-08-24T04:32:45;30.20;99.90
23347;DHT22;36852;45.466;11.066;2023-08-24T04:35:13;30.20;99.90
23347;DHT22;36852;45.466;11.066;2023-08-24T04:37:41;30.20;99.90
23347;DHT22;36852;45.466;11.066;2023-08-24T04:40:10;30.20;99.90
23347;DHT22;36852;45.466;11.066;2023-08-24T04:42:38;30.20;99.90
23347;DHT22;36852;45.466;11.066;2023-08-24T04:45:06;30.20;99.90
23347;DHT22;36852;45.466;11.066;2023-08-24T04:47:35;30.20;99.90
23347;DHT22;36852;45.466;11.066;2023-08-24T04:50:03;30.20;99.70
23347;DHT22;36852;45.466;11.066;2023-08-24T04:52:35;30.20;99.80
23347;DHT22;36852;45.466;11.066;2023-08-24T04:55:03;30.10;99.80
23347;DHT22;36852;45.466;11.066;2023-08-24T04:57:31;30.10;99.90
23347;DHT22;36852;45.466;11.066;2023-08-24T05:00:00;30.10;99.90
23347;DHT22;36852;45.466;11.066;2023-08-24T05:02:28;30.10;99.90
23347;DHT22;36852;45.466;11.066;2023-08-24T05:04:55;30.10;99.90
23347;DHT22;36852;45.466;11.066;2023-08-24T05:07:23;30.20;99.90
23347;DHT22;36852;45.466;11.066;2023-08-24T05:09:53;30.10;99.90
23347;DHT22;36852;45.466;11.066;2023-08-24T05:12:23;30.20;99.90
23347;DHT22;36852;45.466;11.066;2023-08-24T05:14:50;30.20;99.90
23347;DHT22;36852;45.466;11.066;2023-08-24T05:17:19;30.20;99.70
23347;DHT22;36852;45.466;11.066;2023-08-24T05:19:54;30.20;99.70
23347;DHT22;36852;45.466;11.066;2023-08-24T05:22:21;30.20;99.60
23347;DHT22;36852;45.466;11.066;2023-08-24T05:24:49;30.20;99.60
23347;DHT22;36852;45.466;11.066;2023-08-24T05:27:17;30.20;99.60
23347;DHT22;36852;45.466;11.066;2023-08-24T05:29:45;30.20;99.60
23347;DHT22;36852;45.466;11.066;2023-08-24T05:32:13;30.30;99.70
23347;DHT22;36852;45.466;11.066;2023-08-24T05:34:41;30.30;99.40
23347;DHT22;36852;45.466;11.066;2023-08-24T05:37:09;30.30;99.50
23347;DHT22;36852;45.466;11.066;2023-08-24T05:39:38;30.30;99.50
23347;DHT22;36852;45.466;11.066;2023-08-24T05:42:06;30.30;99.40
23347;DHT22;36852;45.466;11.066;2023-08-24T05:44:35;30.30;99.20
23347;DHT22;36852;45.466;11.066;2023-08-24T05:47:03;30.30;99.50
23347;DHT22;36852;45.466;11.066;2023-08-24T05:49:32;30.30;99.40
23347;DHT22;36852;45.466;11.066;2023-08-24T05:52:00;30.30;99.60
23347;DHT22;36852;45.466;11.066;2023-08-24T05:54:28;30.30;99.60
23347;DHT22;36852;45.466;11.066;2023-08-24T05:56:57;30.30;99.90
23347;DHT22;36852;45.466;11.066;2023-08-24T05:59:27;30.30;99.90
23347;DHT22;36852;45.466;11.066;2023-08-24T06:01:55;30.30;99.90
23347;DHT22;36852;45.466;11.066;2023-08-24T06:04:23;30.30;99.90
23347;DHT22;36852;45.466;11.066;2023-08-24T06:06:51;30.30;99.90
23347;DHT22;36852;45.466;11.066;2023-08-24T06:09:20;30.40;99.90
23347;DHT22;36852;45.466;11.066;2023-08-24T06:11:48;30.40;99.90
23347;DHT22;36852;45.466;11.066;2023-08-24T06:14:16;30.40;99.90
23347;DHT22;36852;45.466;11.066;2023-08-24T06:16:44;30.40;99.90
23347;DHT22;36852;45.466;11.066;2023-08-24T06:19:13;30.50;99.90
23347;DHT22;36852;45.466;11.066;2023-08-24T06:21:41;30.50;99.90
23347;DHT22;36852;45.466;11.066;2023-08-24T06:24:12;30.50;99.90
23347;DHT22;36852;45.466;11.066;2023-08-24T06:26:40;30.50;99.90
23347;DHT22;36852;45.466;11.066;2023-08-24T06:29:08;30.50;99.90
23347;DHT22;36852;45.466;11.066;2023-08-24T06:31:35;30.50;99.90
23347;DHT22;36852;45.466;11.066;2023-08-24T06:34:03;30.60;99.90
23347;DHT22;36852;45.466;11.066;2023-08-24T06:36:32;30.60;99.90
23347;DHT22;36852;45.466;11.066;2023-08-24T06:39:00;30.60;99.90
23347;DHT22;36852;45.466;11.066;2023-08-24T06:41:28;30.60;99.90
23347;DHT22;36852;45.466;11.066;2023-08-24T06:43:58;30.70;99.90
23347;DHT22;36852;45.466;11.066;2023-08-24T06:46:27;30.70;99.90
23347;DHT22;36852;45.466;11.066;2023-08-24T06:48:54;30.80;99.90
23347;DHT22;36852;45.466;11.066;2023-08-24T06:51:26;30.80;99.90
23347;DHT22;36852;45.466;11.066;2023-08-24T06:53:55;30.80;99.90
23347;DHT22;36852;45.466;11.066;2023-08-24T06:56:26;30.90;99.90
23347;DHT22;36852;45.466;11.066;2023-08-24T06:58:54;30.90;99.90
23347;DHT22;36852;45.466;11.066;2023-08-24T07:01:22;31.00;99.90
23347;DHT22;36852;45.466;11.066;2023-08-24T07:03:50;31.00;99.90
23347;DHT22;36852;45.466;11.066;2023-08-24T07:06:17;31.00;99.90
23347;DHT22;36852;45.466;11.066;2023-08-24T07:08:46;31.00;99.90
23347;DHT22;36852;45.466;11.066;2023-08-24T07:11:13;31.00;99.90
23347;DHT22;36852;45.466;11.066;2023-08-24T07:13:42;31.10;99.90
23347;DHT22;36852;45.466;11.066;2023-08-24T07:16:10;31.10;99.90
23347;DHT22;36852;45.466;11.066;2023-08-24T07:18:39;31.00;99.90
23347;DHT22;36852;45.466;11.066;2023-08-24T07:21:06;31.10;99.90
23347;DHT22;36852;45.466;11.066;2023-08-24T07:23:35;31.20;99.90
23347;DHT22;36852;45.466;11.066;2023-08-24T07:26:02;31.10;99.90
23347;DHT22;36852;45.466;11.066;2023-08-24T07:28:31;31.20;99.90
23347;DHT22;36852;45.466;11.066;2023-08-24T07:31:10;31.20;99.90
23347;DHT22;36852;45.466;11.066;2023-08-24T07:33:39;31.20;99.90
23347;DHT22;36852;45.466;11.066;2023-08-24T07:36:06;31.20;99.90
23347;DHT22;36852;45.466;11.066;2023-08-24T07:38:34;31.30;99.90
23347;DHT22;36852;45.466;11.066;2023-08-24T07:41:02;31.30;99.90
23347;DHT22;36852;45.466;11.066;2023-08-24T07:43:30;31.30;99.90
23347;DHT22;36852;45.466;11.066;2023-08-24T07:45:58;31.40;99.90
23347;DHT22;36852;45.466;11.066;2023-08-24T07:48:27;31.40;99.90
23347;DHT22;36852;45.466;11.066;2023-08-24T07:50:55;31.40;99.90
23347;DHT22;36852;45.466;11.066;2023-08-24T07:53:23;31.50;99.90
23347;DHT22;36852;45.466;11.066;2023-08-24T07:55:53;31.50;99.90
23347;DHT22;36852;45.466;11.066;2023-08-24T07:58:22;31.60;99.90
23347;DHT22;36852;45.466;11.066;2023-08-24T08:00:50;31.60;99.90
23347;DHT22;36852;45.466;11.066;2023-08-24T08:03:19;31.60;99.90
23347;DHT22;36852;45.466;11.066;2023-08-24T08:05:47;31.70;99.90
23347;DHT22;36852;45.466;11.066;2023-08-24T08:08:15;31.70;99.90
23347;DHT22;36852;45.466;11.066;2023-08-24T08:10:44;31.70;99.90
23347;DHT22;36852;45.466;11.066;2023-08-24T08:13:12;31.80;99.90
23347;DHT22;36852;45.466;11.066;2023-08-24T08:15:40;31.80;99.90
23347;DHT22;36852;45.466;11.066;2023-08-24T08:18:07;31.90;99.90
23347;DHT22;36852;45.466;11.066;2023-08-24T08:20:35;31.90;99.90
23347;DHT22;36852;45.466;11.066;2023-08-24T08:23:06;32.00;99.90
23347;DHT22;36852;45.466;11.066;2023-08-24T08:25:34;32.00;99.90
23347;DHT22;36852;45.466;11.066;2023-08-24T08:28:03;32.00;99.90
23347;DHT22;36852;45.466;11.066;2023-08-24T08:30:31;32.00;99.90
23347;DHT22;36852;45.466;11.066;2023-08-24T08:33:00;32.10;99.20
23347;DHT22;36852;45.466;11.066;2023-08-24T08:35:31;32.10;98.60
23347;DHT22;36852;45.466;11.066;2023-08-24T08:37:59;32.10;98.40
23347;DHT22;36852;45.466;11.066;2023-08-24T08:40:29;32.10;98.30
23347;DHT22;36852;45.466;11.066;2023-08-24T08:42:58;32.10;98.20
23347;DHT22;36852;45.466;11.066;2023-08-24T08:45:26;32.20;98.30
23347;DHT22;36852;45.466;11.066;2023-08-24T08:47:59;32.20;97.40
23347;DHT22;36852;45.466;11.066;2023-08-24T08:50:27;32.20;97.10
23347;DHT22;36852;45.466;11.066;2023-08-24T08:52:57;32.30;97.30
23347;DHT22;36852;45.466;11.066;2023-08-24T08:55:27;32.30;97.10
23347;DHT22;36852;45.466;11.066;2023-08-24T08:57:58;32.30;96.90
23347;DHT22;36852;45.466;11.066;2023-08-24T09:00:27;32.30;96.80
23347;DHT22;36852;45.466;11.066;2023-08-24T09:02:56;32.40;97.40
23347;DHT22;36852;45.466;11.066;2023-08-24T09:05:25;32.40;97.80
23347;DHT22;36852;45.466;11.066;2023-08-24T09:07:54;32.50;99.00
23347;DHT22;36852;45.466;11.066;2023-08-24T09:10:23;32.50;98.80
23347;DHT22;36852;45.466;11.066;2023-08-24T09:12:51;32.50;98.30
23347;DHT22;36852;45.466;11.066;2023-08-24T09:15:27;32.50;98.00
23347;DHT22;36852;45.466;11.066;2023-08-24T09:17:56;32.60;97.40
23347;DHT22;36852;45.466;11.066;2023-08-24T09:20:27;32.60;97.60
23347;DHT22;36852;45.466;11.066;2023-08-24T09:22:56;32.60;97.90
23347;DHT22;36852;45.466;11.066;2023-08-24T09:25:26;32.60;97.60
23347;DHT22;36852;45.466;11.066;2023-08-24T09:28:04;32.70;97.70
23347;DHT22;36852;45.466;11.066;2023-08-24T09:30:35;32.70;98.00
23347;DHT22;36852;45.466;11.066;2023-08-24T09:33:04;32.70;96.90
23347;DHT22;36852;45.466;11.066;2023-08-24T09:35:34;32.70;97.00
23347;DHT22;36852;45.466;11.066;2023-08-24T09:38:21;32.80;96.30
23347;DHT22;36852;45.466;11.066;2023-08-24T09:40:54;32.80;96.70
23347;DHT22;36852;45.466;11.066;2023-08-24T09:43:23;32.80;95.60
23347;DHT22;36852;45.466;11.066;2023-08-24T09:45:54;32.90;95.40
23347;DHT22;36852;45.466;11.066;2023-08-24T09:48:22;32.90;95.20
23347;DHT22;36852;45.466;11.066;2023-08-24T09:50:52;32.90;95.40
23347;DHT22;36852;45.466;11.066;2023-08-24T09:53:23;32.90;95.40
23347;DHT22;36852;45.466;11.066;2023-08-24T09:55:55;33.00;95.90
23347;DHT22;36852;45.466;11.066;2023-08-24T09:58:26;33.00;95.50
23347;DHT22;36852;45.466;11.066;2023-08-24T10:00:55;33.00;95.60
23347;DHT22;36852;45.466;11.066;2023-08-24T10:03:27;33.00;95.90
23347;DHT22;36852;45.466;11.066;2023-08-24T10:05:56;33.00;94.60
23347;DHT22;36852;45.466;11.066;2023-08-24T10:08:35;33.10;94.40
23347;DHT22;36852;45.466;11.066;2023-08-24T10:11:06;33.10;94.40
23347;DHT22;36852;45.466;11.066;2023-08-24T10:13:36;33.10;95.50
23347;DHT22;36852;45.466;11.066;2023-08-24T10:16:07;33.20;94.70
23347;DHT22;36852;45.466;11.066;2023-08-24T10:18:36;33.20;94.20
23347;DHT22;36852;45.466;11.066;2023-08-24T10:21:04;33.30;93.80
23347;DHT22;36852;45.466;11.066;2023-08-24T10:23:34;33.30;94.40
23347;DHT22;36852;45.466;11.066;2023-08-24T10:26:03;33.40;94.60
23347;DHT22;36852;45.466;11.066;2023-08-24T10:28:32;33.40;94.50
23347;DHT22;36852;45.466;11.066;2023-08-24T10:31:01;33.40;94.10
23347;DHT22;36852;45.466;11.066;2023-08-24T10:33:30;33.40;93.50
23347;DHT22;36852;45.466;11.066;2023-08-24T10:35:58;33.50;93.80
23347;DHT22;36852;45.466;11.066;2023-08-24T10:38:28;33.50;94.30
23347;DHT22;36852;45.466;11.066;2023-08-24T10:41:05;33.50;93.70
23347;DHT22;36852;45.466;11.066;2023-08-24T10:43:38;33.60;93.50
23347;DHT22;36852;45.466;11.066;2023-08-24T10:46:13;33.60;93.90
23347;DHT22;36852;45.466;11.066;2023-08-24T10:53:51;33.70;93.10
23347;DHT22;36852;45.466;11.066;2023-08-24T10:56:18;33.70;93.40
23347;DHT22;36852;45.466;11.066;2023-08-24T10:58:47;33.80;94.00
23347;DHT22;36852;45.466;11.066;2023-08-24T11:01:20;33.80;92.70
23347;DHT22;36852;45.466;11.066;2023-08-24T11:03:54;33.80;92.30
23347;DHT22;36852;45.466;11.066;2023-08-24T11:06:21;33.90;93.10
23347;DHT22;36852;45.466;11.066;2023-08-24T11:09:08;33.90;92.50
23347;DHT22;36852;45.466;11.066;2023-08-24T11:11:42;34.00;91.80
23347;DHT22;36852;45.466;11.066;2023-08-24T11:14:22;34.00;92.70
23347;DHT22;36852;45.466;11.066;2023-08-24T11:16:49;34.10;93.10
23347;DHT22;36852;45.466;11.066;2023-08-24T11:19:18;34.10;93.00
23347;DHT22;36852;45.466;11.066;2023-08-24T11:21:47;34.10;91.60
23347;DHT22;36852;45.466;11.066;2023-08-24T11:24:16;34.20;90.70
23347;DHT22;36852;45.466;11.066;2023-08-24T11:26:47;34.20;90.70
23347;DHT22;36852;45.466;11.066;2023-08-24T11:29:17;34.20;90.20
23347;DHT22;36852;45.466;11.066;2023-08-24T11:32:06;34.30;90.00
23347;DHT22;36852;45.466;11.066;2023-08-24T11:34:34;34.30;89.80
23347;DHT22;36852;45.466;11.066;2023-08-24T11:37:04;34.30;90.40
23347;DHT22;36852;45.466;11.066;2023-08-24T11:39:31;34.40;91.30
23347;DHT22;36852;45.466;11.066;2023-08-24T11:42:02;34.40;90.80
23347;DHT22;36852;45.466;11.066;2023-08-24T11:44:47;34.40;90.20
23347;DHT22;36852;45.466;11.066;2023-08-24T11:47:16;34.50;89.60
23347;DHT22;36852;45.466;11.066;2023-08-24T11:49:46;34.50;89.60
23347;DHT22;36852;45.466;11.066;2023-08-24T11:52:15;34.60;89.00
23347;DHT22;36852;45.466;11.066;2023-08-24T11:54:43;34.60;87.90
23347;DHT22;36852;45.466;11.066;2023-08-24T11:57:13;34.60;88.50
23347;DHT22;36852;45.466;11.066;2023-08-24T11:59:41;34.70;90.10
23347;DHT22;36852;45.466;11.066;2023-08-24T12:02:11;34.70;86.00
23347;DHT22;36852;45.466;11.066;2023-08-24T12:04:42;34.70;84.40
23347;DHT22;36852;45.466;11.066;2023-08-24T12:07:11;34.70;83.90
23347;DHT22;36852;45.466;11.066;2023-08-24T12:09:41;34.80;82.90
23347;DHT22;36852;45.466;11.066;2023-08-24T12:12:16;34.80;79.20
23347;DHT22;36852;45.466;11.066;2023-08-24T12:14:45;34.90;80.40
23347;DHT22;36852;45.466;11.066;2023-08-24T12:17:16;34.90;80.90
23347;DHT22;36852;45.466;11.066;2023-08-24T12:20:00;35.00;81.40
23347;DHT22;36852;45.466;11.066;2023-08-24T12:22:30;35.20;81.30
23347;DHT22;36852;45.466;11.066;2023-08-24T12:24:58;35.20;79.30
23347;DHT22;36852;45.466;11.066;2023-08-24T12:27:26;35.30;78.90
23347;DHT22;36852;45.466;11.066;2023-08-24T12:30:00;35.40;79.80
23347;DHT22;36852;45.466;11.066;2023-08-24T12:32:41;35.40;78.70
23347;DHT22;36852;45.466;11.066;2023-08-24T12:34:58;35.40;77.70
23347;DHT22;36852;45.466;11.066;2023-08-24T12:37:28;35.50;79.20
23347;DHT22;36852;45.466;11.066;2023-08-24T12:39:57;35.60;79.40
23347;DHT22;36852;45.466;11.066;2023-08-24T12:42:25;35.60;76.80
23347;DHT22;36852;45.466;11.066;2023-08-24T12:44:53;35.70;76.80
23347;DHT22;36852;45.466;11.066;2023-08-24T12:47:22;35.70;77.00
23347;DHT22;36852;45.466;11.066;2023-08-24T12:49:51;35.80;77.30
23347;DHT22;36852;45.466;11.066;2023-08-24T12:52:21;35.90;70.30
23347;DHT22;36852;45.466;11.066;2023-08-24T12:54:49;35.90;69.60
23347;DHT22;36852;45.466;11.066;2023-08-24T12:57:20;36.00;71.10
23347;DHT22;36852;45.466;11.066;2023-08-24T12:59:48;36.10;70.50
23347;DHT22;36852;45.466;11.066;2023-08-24T13:02:17;36.10;68.90
23347;DHT22;36852;45.466;11.066;2023-08-24T13:04:46;36.10;71.50
23347;DHT22;36852;45.466;11.066;2023-08-24T13:07:16;36.20;71.10
23347;DHT22;36852;45.466;11.066;2023-08-24T13:09:45;36.20;71.80
23347;DHT22;36852;45.466;11.066;2023-08-24T13:12:13;36.30;68.90
23347;DHT22;36852;45.466;11.066;2023-08-24T13:14:41;36.40;67.90
23347;DHT22;36852;45.466;11.066;2023-08-24T13:17:09;36.40;67.50
23347;DHT22;36852;45.466;11.066;2023-08-24T13:19:37;36.50;67.50
23347;DHT22;36852;45.466;11.066;2023-08-24T13:22:05;36.60;66.80
23347;DHT22;36852;45.466;11.066;2023-08-24T13:24:35;36.60;65.60
23347;DHT22;36852;45.466;11.066;2023-08-24T13:27:03;36.70;66.20
23347;DHT22;36852;45.466;11.066;2023-08-24T13:29:32;36.80;66.40
23347;DHT22;36852;45.466;11.066;2023-08-24T13:32:07;36.90;64.10
23347;DHT22;36852;45.466;11.066;2023-08-24T13:34:36;36.90;65.90
23347;DHT22;36852;45.466;11.066;2023-08-24T13:37:04;37.10;65.90
23347;DHT22;36852;45.466;11.066;2023-08-24T13:39:32;37.10;65.00
23347;DHT22;36852;45.466;11.066;2023-08-24T13:42:01;37.20;62.70
23347;DHT22;36852;45.466;11.066;2023-08-24T13:44:29;37.30;62.60
23347;DHT22;36852;45.466;11.066;2023-08-24T13:46:57;37.40;62.40
23347;DHT22;36852;45.466;11.066;2023-08-24T13:49:25;37.40;63.40
23347;DHT22;36852;45.466;11.066;2023-08-24T13:51:56;37.50;63.80
23347;DHT22;36852;45.466;11.066;2023-08-24T13:54:24;37.60;63.60
23347;DHT22;36852;45.466;11.066;2023-08-24T13:56:54;37.60;64.10
23347;DHT22;36852;45.466;11.066;2023-08-24T13:59:22;37.70;63.50
23347;DHT22;36852;45.466;11.066;2023-08-24T14:01:50;37.80;62.40
23347;DHT22;36852;45.466;11.066;2023-08-24T14:04:18;37.90;63.90
23347;DHT22;36852;45.466;11.066;2023-08-24T14:06:47;37.90;62.70
23347;DHT22;36852;45.466;11.066;2023-08-24T14:09:15;38.10;63.10
23347;DHT22;36852;45.466;11.066;2023-08-24T14:11:43;38.10;63.30
23347;DHT22;36852;45.466;11.066;2023-08-24T14:14:11;38.10;63.00
23347;DHT22;36852;45.466;11.066;2023-08-24T14:16:39;38.10;61.50
23347;DHT22;36852;45.466;11.066;2023-08-24T14:19:07;38.20;61.60
23347;DHT22;36852;45.466;11.066;2023-08-24T14:21:35;38.20;63.40
23347;DHT22;36852;45.466;11.066;2023-08-24T14:24:05;38.30;63.40
23347;DHT22;36852;45.466;11.066;2023-08-24T14:26:33;38.40;62.60
23347;DHT22;36852;45.466;11.066;2023-08-24T14:29:01;38.50;61.80
23347;DHT22;36852;45.466;11.066;2023-08-24T14:31:29;38.60;61.80
23347;DHT22;36852;45.466;11.066;2023-08-24T14:33:57;38.60;63.00
23347;DHT22;36852;45.466;11.066;2023-08-24T14:36:26;38.70;63.60
23347;DHT22;36852;45.466;11.066;2023-08-24T14:38:58;38.70;62.30
23347;DHT22;36852;45.466;11.066;2023-08-24T14:41:26;38.80;60.00
23347;DHT22;36852;45.466;11.066;2023-08-24T14:43:55;38.90;60.20
23347;DHT22;36852;45.466;11.066;2023-08-24T14:46:23;38.90;61.20
23347;DHT22;36852;45.466;11.066;2023-08-24T14:48:50;39.00;60.60
23347;DHT22;36852;45.466;11.066;2023-08-24T14:51:18;39.00;59.80
23347;DHT22;36852;45.466;11.066;2023-08-24T14:53:49;39.10;60.60
23347;DHT22;36852;45.466;11.066;2023-08-24T14:56:20;39.10;59.40
23347;DHT22;36852;45.466;11.066;2023-08-24T14:58:49;39.00;58.90
23347;DHT22;36852;45.466;11.066;2023-08-24T15:01:17;39.00;59.10
23347;DHT22;36852;45.466;11.066;2023-08-24T15:03:45;39.00;58.90
23347;DHT22;36852;45.466;11.066;2023-08-24T15:06:15;39.10;59.50
23347;DHT22;36852;45.466;11.066;2023-08-24T15:08:43;39.10;59.00
23347;DHT22;36852;45.466;11.066;2023-08-24T15:11:14;39.20;61.80
23347;DHT22;36852;45.466;11.066;2023-08-24T15:13:42;39.30;62.40
23347;DHT22;36852;45.466;11.066;2023-08-24T15:16:10;39.40;60.70
23347;DHT22;36852;45.466;11.066;2023-08-24T15:18:38;39.50;60.40
23347;DHT22;36852;45.466;11.066;2023-08-24T15:21:06;39.50;58.50
23347;DHT22;36852;45.466;11.066;2023-08-24T15:23:35;39.60;59.50
23347;DHT22;36852;45.466;11.066;2023-08-24T15:26:03;39.70;59.90
23347;DHT22;36852;45.466;11.066;2023-08-24T15:28:37;39.70;61.20
23347;DHT22;36852;45.466;11.066;2023-08-24T15:31:05;39.80;59.20
23347;DHT22;36852;45.466;11.066;2023-08-24T15:33:33;39.80;57.00
23347;DHT22;36852;45.466;11.066;2023-08-24T15:36:02;39.80;56.20